sensor_id;sensor_type;location;lat;lon;timestamp;P1;durP1;ratioP1;P2;durP2;ratioP2
80322;SDS011;69636;52.372;13.610;2023-08-24T00:01:41;11.70;;;8.75;;
80322;SDS011;69636;52.372;13.610;2023-08-24T00:04:10;10.27;;;8.25;;
80322;SDS011;69636;52.372;13.610;2023-08-24T00:06:37;10.73;;;8.00;;
80322;SDS011;69636;52.372;13.610;2023-08-24T00:09:04;10.35;;;9.23;;
80322;SDS011;69636;52.372;13.610;2023-08-24T00:11:32;8.93;;;6.88;;
80322;SDS011;69636;52.372;13.610;2023-08-24T00:13:59;9.02;;;8.02;;
80322;SDS011;69636;52.372;13.610;2023-08-24T00:16:26;10.90;;;8.60;;
80322;SDS011;69636;52.372;13.610;2023-08-24T00:18:54;9.25;;;8.25;;
80322;SDS011;69636;52.372;13.610;2023-08-24T00:21:22;9.25;;;8.13;;
80322;SDS011;69636;52.372;13.610;2023-08-24T00:23:50;9.48;;;7.82;;
80322;SDS011;69636;52.372;13.610;2023-08-24T00:26:18;10.20;;;8.82;;
80322;SDS011;69636;52.372;13.610;2023-08-24T00:28:45;11.88;;;8.63;;
80322;SDS011;69636;52.372;13.610;2023-08-24T00:31:14;9.77;;;8.35;;
80322;SDS011;69636;52.372;13.610;2023-08-24T00:33:42;10.02;;;9.02;;
80322;SDS011;69636;52.372;13.610;2023-08-24T00:36:09;9.55;;;7.70;;
80322;SDS011;69636;52.372;13.610;2023-08-24T00:38:38;9.00;;;7.40;;
80322;SDS011;69636;52.372;13.610;2023-08-24T00:41:05;10.05;;;8.65;;
80322;SDS011;69636;52.372;13.610;2023-08-24T00:43:33;9.35;;;8.43;;
80322;SDS011;69636;52.372;13.610;2023-08-24T00:46:00;9.68;;;8.55;;
80322;SDS011;69636;52.372;13.610;2023-08-24T00:48:29;9.65;;;8.55;;
80322;SDS011;69636;52.372;13.610;2023-08-24T00:50:59;8.70;;;7.75;;
80322;SDS011;69636;52.372;13.610;2023-08-24T00:53:28;10.07;;;8.30;;
80322;SDS011;69636;52.372;13.610;2023-08-24T00:55:58;10.68;;;8.05;;
80322;SDS011;69636;52.372;13.610;2023-08-24T00:58:26;9.38;;;8.23;;
80322;SDS011;69636;52.372;13.610;2023-08-24T01:00:54;9.48;;;8.20;;
80322;SDS011;69636;52.372;13.610;2023-08-24T01:03:23;10.18;;;8.48;;
80322;SDS011;69636;52.372;13.610;2023-08-24T01:05:51;10.38;;;8.90;;
80322;SDS011;69636;52.372;13.610;2023-08-24T01:08:19;9.98;;;8.45;;
80322;SDS011;69636;52.372;13.610;2023-08-24T01:10:48;8.38;;;7.57;;
80322;SDS011;69636;52.372;13.610;2023-08-24T01:13:27;9.57;;;8.10;;
80322;SDS011;69636;52.372;13.610;2023-08-24T01:16:00;9.00;;;7.90;;
80322;SDS011;69636;52.372;13.610;2023-08-24T01:18:33;9.63;;;8.13;;
80322;SDS011;69636;52.372;13.610;2023-08-24T01:21:02;8.68;;;7.82;;
80322;SDS011;69636;52.372;13.610;2023-08-24T01:23:33;9.40;;;8.20;;
80322;SDS011;69636;52.372;13.610;2023-08-24T01:26:11;8.68;;;7.78;;
80322;SDS011;69636;52.372;13.610;2023-08-24T01:28:38;8.85;;;7.75;;
80322;SDS011;69636;52.372;13.610;2023-08-24T01:31:08;8.88;;;8.02;;
80322;SDS011;69636;52.372;13.610;2023-08-24T01:33:35;9.65;;;8.68;;
80322;SDS011;69636;52.372;13.610;2023-08-24T01:36:03;8.75;;;7.60;;
80322;SDS011;69636;52.372;13.610;2023-08-24T01:38:30;9.15;;;8.25;;
80322;SDS011;69636;52.372;13.610;2023-08-24T01:40:59;9.68;;;8.65;;
80322;SDS011;69636;52.372;13.610;2023-08-24T01:43:37;8.85;;;8.05;;
80322;SDS011;69636;52.372;13.610;2023-08-24T01:46:11;9.23;;;8.30;;
80322;SDS011;69636;52.372;13.610;2023-08-24T01:48:41;9.63;;;7.55;;
80322;SDS011;69636;52.372;13.610;2023-08-24T01:53:36;10.02;;;9.18;;
80322;SDS011;69636;52.372;13.610;2023-08-24T01:56:09;10.13;;;9.00;;
80322;SDS011;69636;52.372;13.610;2023-08-24T01:58:38;10.57;;;9.15;;
80322;SDS011;69636;52.372;13.610;2023-08-24T02:01:05;9.02;;;8.07;;
80322;SDS011;69636;52.372;13.610;2023-08-24T02:03:34;9.93;;;8.93;;
80322;SDS011;69636;52.372;13.610;2023-08-24T02:06:02;9.50;;;8.15;;
80322;SDS011;69636;52.372;13.610;2023-08-24T02:08:29;8.18;;;6.43;;
80322;SDS011;69636;52.372;13.610;2023-08-24T02:10:56;9.45;;;8.45;;
80322;SDS011;69636;52.372;13.610;2023-08-24T02:13:23;9.77;;;8.85;;
80322;SDS011;69636;52.372;13.610;2023-08-24T02:15:54;9.60;;;8.70;;
80322;SDS011;69636;52.372;13.610;2023-08-24T02:18:28;10.15;;;9.18;;
80322;SDS011;69636;52.372;13.610;2023-08-24T02:20:55;9.23;;;8.32;;
80322;SDS011;69636;52.372;13.610;2023-08-24T02:23:22;8.57;;;7.60;;
80322;SDS011;69636;52.372;13.610;2023-08-24T02:25:50;9.25;;;8.35;;
80322;SDS011;69636;52.372;13.610;2023-08-24T02:28:17;9.18;;;8.15;;
80322;SDS011;69636;52.372;13.610;2023-08-24T02:30:44;9.27;;;7.65;;
80322;SDS011;69636;52.372;13.610;2023-08-24T02:33:13;8.57;;;7.53;;
80322;SDS011;69636;52.372;13.610;2023-08-24T02:35:41;8.40;;;7.35;;
80322;SDS011;69636;52.372;13.610;2023-08-24T02:38:08;8.70;;;7.90;;
80322;SDS011;69636;52.372;13.610;2023-08-24T02:40:35;9.65;;;7.78;;
80322;SDS011;69636;52.372;13.610;2023-08-24T02:43:03;8.93;;;7.80;;
80322;SDS011;69636;52.372;13.610;2023-08-24T02:45:30;10.00;;;7.95;;
80322;SDS011;69636;52.372;13.610;2023-08-24T02:47:57;9.88;;;8.10;;
80322;SDS011;69636;52.372;13.610;2023-08-24T02:50:26;9.10;;;7.95;;
80322;SDS011;69636;52.372;13.610;2023-08-24T02:52:53;9.52;;;8.65;;
80322;SDS011;69636;52.372;13.610;2023-08-24T02:55:21;8.27;;;7.47;;
80322;SDS011;69636;52.372;13.610;2023-08-24T02:57:48;9.15;;;8.25;;
80322;SDS011;69636;52.372;13.610;2023-08-24T03:00:16;8.80;;;8.00;;
80322;SDS011;69636;52.372;13.610;2023-08-24T03:05:11;7.53;;;5.93;;
80322;SDS011;69636;52.372;13.610;2023-08-24T03:07:39;7.82;;;6.45;;
80322;SDS011;69636;52.372;13.610;2023-08-24T03:10:07;7.63;;;6.82;;
80322;SDS011;69636;52.372;13.610;2023-08-24T03:15:09;9.63;;;6.95;;
80322;SDS011;69636;52.372;13.610;2023-08-24T03:17:36;8.88;;;7.90;;
80322;SDS011;69636;52.372;13.610;2023-08-24T03:20:04;8.57;;;7.78;;
80322;SDS011;69636;52.372;13.610;2023-08-24T03:22:32;7.95;;;7.15;;
80322;SDS011;69636;52.372;13.610;2023-08-24T03:25:01;7.97;;;7.18;;
80322;SDS011;69636;52.372;13.610;2023-08-24T03:27:28;7.75;;;6.47;;
80322;SDS011;69636;52.372;13.610;2023-08-24T03:29:57;7.60;;;6.85;;
80322;SDS011;69636;52.372;13.610;2023-08-24T03:32:24;7.60;;;6.13;;
80322;SDS011;69636;52.372;13.610;2023-08-24T03:34:53;7.95;;;6.28;;
80322;SDS011;69636;52.372;13.610;2023-08-24T03:37:25;8.43;;;7.05;;
80322;SDS011;69636;52.372;13.610;2023-08-24T03:39:52;8.27;;;7.38;;
80322;SDS011;69636;52.372;13.610;2023-08-24T03:42:21;8.23;;;7.43;;
80322;SDS011;69636;52.372;13.610;2023-08-24T03:44:49;8.13;;;6.70;;
80322;SDS011;69636;52.372;13.610;2023-08-24T03:47:16;7.65;;;6.50;;
80322;SDS011;69636;52.372;13.610;2023-08-24T03:49:43;6.93;;;6.22;;
80322;SDS011;69636;52.372;13.610;2023-08-24T03:52:11;7.82;;;6.00;;
80322;SDS011;69636;52.372;13.610;2023-08-24T03:54:41;7.03;;;6.32;;
80322;SDS011;69636;52.372;13.610;2023-08-24T03:57:08;7.55;;;6.35;;
80322;SDS011;69636;52.372;13.610;2023-08-24T03:59:37;6.53;;;5.68;;
80322;SDS011;69636;52.372;13.610;2023-08-24T04:02:04;8.45;;;7.63;;
80322;SDS011;69636;52.372;13.610;2023-08-24T04:04:32;8.43;;;6.82;;
80322;SDS011;69636;52.372;13.610;2023-08-24T04:06:59;8.43;;;7.20;;
80322;SDS011;69636;52.372;13.610;2023-08-24T04:09:26;8.82;;;7.72;;
80322;SDS011;69636;52.372;13.610;2023-08-24T04:11:54;9.02;;;7.05;;
80322;SDS011;69636;52.372;13.610;2023-08-24T04:14:21;9.38;;;7.05;;
80322;SDS011;69636;52.372;13.610;2023-08-24T04:16:50;9.15;;;8.27;;
80322;SDS011;69636;52.372;13.610;2023-08-24T04:19:17;7.72;;;6.60;;
80322;SDS011;69636;52.372;13.610;2023-08-24T04:21:44;8.35;;;6.68;;
80322;SDS011;69636;52.372;13.610;2023-08-24T04:26:39;8.52;;;6.55;;
80322;SDS011;69636;52.372;13.610;2023-08-24T04:29:06;7.78;;;7.05;;
80322;SDS011;69636;52.372;13.610;2023-08-24T04:31:34;7.30;;;6.47;;
80322;SDS011;69636;52.372;13.610;2023-08-24T04:34:02;8.02;;;6.88;;
80322;SDS011;69636;52.372;13.610;2023-08-24T04:36:30;7.47;;;6.70;;
80322;SDS011;69636;52.372;13.610;2023-08-24T04:38:57;7.30;;;6.60;;
80322;SDS011;69636;52.372;13.610;2023-08-24T04:41:24;7.82;;;7.03;;
80322;SDS011;69636;52.372;13.610;2023-08-24T04:43:52;7.50;;;6.63;;
80322;SDS011;69636;52.372;13.610;2023-08-24T04:46:19;8.95;;;7.88;;
80322;SDS011;69636;52.372;13.610;2023-08-24T04:48:47;8.63;;;7.82;;
80322;SDS011;69636;52.372;13.610;2023-08-24T04:51:16;7.70;;;6.85;;
80322;SDS011;69636;52.372;13.610;2023-08-24T04:53:43;8.43;;;7.63;;
80322;SDS011;69636;52.372;13.610;2023-08-24T04:56:10;7.30;;;6.60;;
80322;SDS011;69636;52.372;13.610;2023-08-24T04:58:38;7.10;;;6.40;;
80322;SDS011;69636;52.372;13.610;2023-08-24T05:01:05;6.63;;;6.00;;
80322;SDS011;69636;52.372;13.610;2023-08-24T05:03:32;6.43;;;5.72;;
80322;SDS011;69636;52.372;13.610;2023-08-24T05:06:00;10.60;;;6.80;;
80322;SDS011;69636;52.372;13.610;2023-08-24T05:08:28;8.48;;;6.90;;
80322;SDS011;69636;52.372;13.610;2023-08-24T05:10:56;7.55;;;6.85;;
80322;SDS011;69636;52.372;13.610;2023-08-24T05:13:23;7.38;;;5.22;;
80322;SDS011;69636;52.372;13.610;2023-08-24T05:15:50;6.22;;;5.55;;
80322;SDS011;69636;52.372;13.610;2023-08-24T05:18:17;6.90;;;6.18;;
80322;SDS011;69636;52.372;13.610;2023-08-24T05:20:45;6.43;;;5.82;;
80322;SDS011;69636;52.372;13.610;2023-08-24T05:23:12;8.38;;;7.57;;
80322;SDS011;69636;52.372;13.610;2023-08-24T05:25:41;7.15;;;5.85;;
80322;SDS011;69636;52.372;13.610;2023-08-24T05:28:11;6.25;;;5.65;;
80322;SDS011;69636;52.372;13.610;2023-08-24T05:30:39;8.48;;;6.53;;
80322;SDS011;69636;52.372;13.610;2023-08-24T05:33:06;8.38;;;7.57;;
80322;SDS011;69636;52.372;13.610;2023-08-24T05:35:33;6.72;;;6.03;;
80322;SDS011;69636;52.372;13.610;2023-08-24T05:38:01;7.75;;;7.00;;
80322;SDS011;69636;52.372;13.610;2023-08-24T05:40:28;7.63;;;6.90;;
80322;SDS011;69636;52.372;13.610;2023-08-24T05:42:57;7.03;;;6.32;;
80322;SDS011;69636;52.372;13.610;2023-08-24T05:45:24;6.28;;;5.50;;
80322;SDS011;69636;52.372;13.610;2023-08-24T05:47:52;8.40;;;7.30;;
80322;SDS011;69636;52.372;13.610;2023-08-24T05:52:47;7.55;;;6.13;;
80322;SDS011;69636;52.372;13.610;2023-08-24T05:55:15;7.32;;;5.75;;
80322;SDS011;69636;52.372;13.610;2023-08-24T05:57:42;6.30;;;5.03;;
80322;SDS011;69636;52.372;13.610;2023-08-24T06:00:11;6.25;;;5.43;;
80322;SDS011;69636;52.372;13.610;2023-08-24T06:02:39;6.00;;;5.40;;
80322;SDS011;69636;52.372;13.610;2023-08-24T06:05:07;6.45;;;5.15;;
80322;SDS011;69636;52.372;13.610;2023-08-24T06:07:35;5.72;;;4.78;;
80322;SDS011;69636;52.372;13.610;2023-08-24T06:10:03;5.97;;;4.70;;
80322;SDS011;69636;52.372;13.610;2023-08-24T06:12:31;8.32;;;4.65;;
80322;SDS011;69636;52.372;13.610;2023-08-24T06:14:58;5.28;;;4.47;;
80322;SDS011;69636;52.372;13.610;2023-08-24T06:17:27;6.47;;;4.60;;
80322;SDS011;69636;52.372;13.610;2023-08-24T06:19:54;5.40;;;4.40;;
80322;SDS011;69636;52.372;13.610;2023-08-24T06:22:21;5.07;;;4.28;;
80322;SDS011;69636;52.372;13.610;2023-08-24T06:24:49;6.28;;;4.43;;
80322;SDS011;69636;52.372;13.610;2023-08-24T06:27:16;5.93;;;4.80;;
80322;SDS011;69636;52.372;13.610;2023-08-24T06:29:43;5.72;;;5.22;;
80322;SDS011;69636;52.372;13.610;2023-08-24T06:32:11;6.15;;;5.55;;
80322;SDS011;69636;52.372;13.610;2023-08-24T06:34:39;4.97;;;4.22;;
80322;SDS011;69636;52.372;13.610;2023-08-24T06:37:07;5.63;;;4.43;;
80322;SDS011;69636;52.372;13.610;2023-08-24T06:39:34;5.50;;;4.03;;
80322;SDS011;69636;52.372;13.610;2023-08-24T06:42:02;6.20;;;4.20;;
80322;SDS011;69636;52.372;13.610;2023-08-24T06:44:29;4.93;;;3.65;;
80322;SDS011;69636;52.372;13.610;2023-08-24T06:46:57;5.22;;;4.00;;
80322;SDS011;69636;52.372;13.610;2023-08-24T06:49:24;5.55;;;4.50;;
80322;SDS011;69636;52.372;13.610;2023-08-24T06:51:53;5.65;;;5.15;;
80322;SDS011;69636;52.372;13.610;2023-08-24T06:54:20;4.75;;;4.22;;
80322;SDS011;69636;52.372;13.610;2023-08-24T06:56:47;4.68;;;3.92;;
80322;SDS011;69636;52.372;13.610;2023-08-24T06:59:15;6.60;;;4.30;;
80322;SDS011;69636;52.372;13.610;2023-08-24T07:01:42;5.05;;;4.50;;
80322;SDS011;69636;52.372;13.610;2023-08-24T07:04:09;4.43;;;4.03;;
80322;SDS011;69636;52.372;13.610;2023-08-24T07:06:37;5.28;;;3.47;;
80322;SDS011;69636;52.372;13.610;2023-08-24T07:09:05;6.38;;;3.90;;
80322;SDS011;69636;52.372;13.610;2023-08-24T07:11:33;4.82;;;3.90;;
80322;SDS011;69636;52.372;13.610;2023-08-24T07:14:00;4.20;;;3.45;;
80322;SDS011;69636;52.372;13.610;2023-08-24T07:16:27;4.97;;;3.58;;
80322;SDS011;69636;52.372;13.610;2023-08-24T07:18:55;6.50;;;3.90;;
80322;SDS011;69636;52.372;13.610;2023-08-24T07:21:22;3.80;;;3.20;;
80322;SDS011;69636;52.372;13.610;2023-08-24T07:23:49;4.75;;;2.53;;
80322;SDS011;69636;52.372;13.610;2023-08-24T07:26:18;3.92;;;3.40;;
80322;SDS011;69636;52.372;13.610;2023-08-24T07:28:46;5.28;;;3.50;;
80322;SDS011;69636;52.372;13.610;2023-08-24T07:31:13;4.40;;;3.30;;
80322;SDS011;69636;52.372;13.610;2023-08-24T07:33:40;4.43;;;3.20;;
80322;SDS011;69636;52.372;13.610;2023-08-24T07:36:09;5.82;;;3.97;;
80322;SDS011;69636;52.372;13.610;2023-08-24T07:41:03;4.05;;;3.15;;
80322;SDS011;69636;52.372;13.610;2023-08-24T07:43:32;4.70;;;2.83;;
80322;SDS011;69636;52.372;13.610;2023-08-24T07:45:59;4.53;;;2.75;;
80322;SDS011;69636;52.372;13.610;2023-08-24T07:48:27;4.53;;;3.00;;
80322;SDS011;69636;52.372;13.610;2023-08-24T07:50:54;4.30;;;2.83;;
80322;SDS011;69636;52.372;13.610;2023-08-24T07:53:22;4.47;;;2.83;;
80322;SDS011;69636;52.372;13.610;2023-08-24T07:55:49;4.65;;;3.55;;
80322;SDS011;69636;52.372;13.610;2023-08-24T07:58:16;5.85;;;3.20;;
80322;SDS011;69636;52.372;13.610;2023-08-24T08:00:45;3.60;;;2.90;;
80322;SDS011;69636;52.372;13.610;2023-08-24T08:03:16;5.22;;;2.85;;
80322;SDS011;69636;52.372;13.610;2023-08-24T08:08:10;6.95;;;3.63;;
80322;SDS011;69636;52.372;13.610;2023-08-24T08:10:37;4.65;;;3.13;;
80322;SDS011;69636;52.372;13.610;2023-08-24T08:13:05;4.60;;;2.70;;
80322;SDS011;69636;52.372;13.610;2023-08-24T08:15:33;4.40;;;3.33;;
80322;SDS011;69636;52.372;13.610;2023-08-24T08:20:29;3.30;;;2.22;;
80322;SDS011;69636;52.372;13.610;2023-08-24T08:22:58;4.05;;;2.70;;
80322;SDS011;69636;52.372;13.610;2023-08-24T08:27:52;4.72;;;2.50;;
80322;SDS011;69636;52.372;13.610;2023-08-24T08:30:22;4.38;;;2.28;;
80322;SDS011;69636;52.372;13.610;2023-08-24T08:32:49;4.60;;;2.70;;
80322;SDS011;69636;52.372;13.610;2023-08-24T08:35:18;5.38;;;3.13;;
80322;SDS011;69636;52.372;13.610;2023-08-24T08:37:45;4.30;;;3.03;;
80322;SDS011;69636;52.372;13.610;2023-08-24T08:40:13;4.28;;;3.15;;
80322;SDS011;69636;52.372;13.610;2023-08-24T08:42:40;5.32;;;2.40;;
80322;SDS011;69636;52.372;13.610;2023-08-24T08:47:36;3.67;;;2.58;;
80322;SDS011;69636;52.372;13.610;2023-08-24T08:50:04;5.10;;;3.25;;
80322;SDS011;69636;52.372;13.610;2023-08-24T08:52:33;3.35;;;2.17;;
80322;SDS011;69636;52.372;13.610;2023-08-24T08:55:02;4.38;;;2.97;;
80322;SDS011;69636;52.372;13.610;2023-08-24T08:57:30;4.63;;;2.20;;
80322;SDS011;69636;52.372;13.610;2023-08-24T09:00:00;4.88;;;3.10;;
80322;SDS011;69636;52.372;13.610;2023-08-24T09:04:55;10.88;;;3.72;;
80322;SDS011;69636;52.372;13.610;2023-08-24T09:07:24;4.07;;;2.60;;
80322;SDS011;69636;52.372;13.610;2023-08-24T09:09:53;3.90;;;2.40;;
80322;SDS011;69636;52.372;13.610;2023-08-24T09:12:20;4.10;;;2.20;;
80322;SDS011;69636;52.372;13.610;2023-08-24T09:14:47;4.68;;;2.50;;
80322;SDS011;69636;52.372;13.610;2023-08-24T09:17:21;3.70;;;1.98;;
80322;SDS011;69636;52.372;13.610;2023-08-24T09:19:49;5.88;;;2.95;;
80322;SDS011;69636;52.372;13.610;2023-08-24T09:22:17;4.28;;;2.50;;
80322;SDS011;69636;52.372;13.610;2023-08-24T09:27:17;3.80;;;2.30;;
80322;SDS011;69636;52.372;13.610;2023-08-24T09:29:47;3.42;;;2.35;;
80322;SDS011;69636;52.372;13.610;2023-08-24T09:32:15;4.95;;;2.70;;
80322;SDS011;69636;52.372;13.610;2023-08-24T09:37:12;3.53;;;1.90;;
80322;SDS011;69636;52.372;13.610;2023-08-24T09:39:40;4.70;;;2.60;;
80322;SDS011;69636;52.372;13.610;2023-08-24T09:42:08;3.78;;;2.40;;
80322;SDS011;69636;52.372;13.610;2023-08-24T09:44:36;3.17;;;2.25;;
80322;SDS011;69636;52.372;13.610;2023-08-24T09:47:08;4.13;;;2.30;;
80322;SDS011;69636;52.372;13.610;2023-08-24T09:49:38;4.20;;;2.30;;
80322;SDS011;69636;52.372;13.610;2023-08-24T09:54:35;4.20;;;2.10;;
80322;SDS011;69636;52.372;13.610;2023-08-24T09:57:04;4.63;;;2.55;;
80322;SDS011;69636;52.372;13.610;2023-08-24T09:59:33;3.22;;;2.20;;
80322;SDS011;69636;52.372;13.610;2023-08-24T10:02:03;4.13;;;1.92;;
80322;SDS011;69636;52.372;13.610;2023-08-24T10:07:10;3.03;;;2.00;;
80322;SDS011;69636;52.372;13.610;2023-08-24T10:09:44;4.32;;;1.75;;
80322;SDS011;69636;52.372;13.610;2023-08-24T10:12:14;4.28;;;2.20;;
80322;SDS011;69636;52.372;13.610;2023-08-24T10:14:47;3.03;;;1.88;;
80322;SDS011;69636;52.372;13.610;2023-08-24T10:17:24;3.85;;;1.55;;
80322;SDS011;69636;52.372;13.610;2023-08-24T10:19:53;2.95;;;2.55;;
80322;SDS011;69636;52.372;13.610;2023-08-24T10:22:22;3.47;;;2.00;;
80322;SDS011;69636;52.372;13.610;2023-08-24T10:24:50;3.20;;;2.13;;
80322;SDS011;69636;52.372;13.610;2023-08-24T10:27:20;3.20;;;1.60;;
80322;SDS011;69636;52.372;13.610;2023-08-24T10:29:49;4.50;;;1.90;;
80322;SDS011;69636;52.372;13.610;2023-08-24T10:32:16;3.30;;;1.65;;
80322;SDS011;69636;52.372;13.610;2023-08-24T10:34:45;4.60;;;1.95;;
80322;SDS011;69636;52.372;13.610;2023-08-24T10:37:13;2.70;;;1.50;;
80322;SDS011;69636;52.372;13.610;2023-08-24T10:39:43;3.30;;;2.00;;
80322;SDS011;69636;52.372;13.610;2023-08-24T10:42:11;3.53;;;1.83;;
80322;SDS011;69636;52.372;13.610;2023-08-24T10:44:43;2.83;;;1.63;;
80322;SDS011;69636;52.372;13.610;2023-08-24T10:47:12;3.78;;;2.05;;
80322;SDS011;69636;52.372;13.610;2023-08-24T10:49:40;4.20;;;1.80;;
80322;SDS011;69636;52.372;13.610;2023-08-24T10:52:19;2.53;;;1.60;;
80322;SDS011;69636;52.372;13.610;2023-08-24T10:54:48;3.55;;;2.10;;
80322;SDS011;69636;52.372;13.610;2023-08-24T10:57:20;4.35;;;2.33;;
80322;SDS011;69636;52.372;13.610;2023-08-24T11:00:03;4.28;;;1.55;;
80322;SDS011;69636;52.372;13.610;2023-08-24T11:02:40;4.18;;;1.70;;
80322;SDS011;69636;52.372;13.610;2023-08-24T11:05:16;4.43;;;2.10;;
80322;SDS011;69636;52.372;13.610;2023-08-24T11:07:54;3.40;;;2.05;;
80322;SDS011;69636;52.372;13.610;2023-08-24T11:10:22;2.75;;;2.08;;
80322;SDS011;69636;52.372;13.610;2023-08-24T11:13:10;4.38;;;2.03;;
80322;SDS011;69636;52.372;13.610;2023-08-24T11:15:42;3.25;;;1.90;;
80322;SDS011;69636;52.372;13.610;2023-08-24T11:18:11;3.00;;;1.75;;
80322;SDS011;69636;52.372;13.610;2023-08-24T11:20:47;4.10;;;1.90;;
80322;SDS011;69636;52.372;13.610;2023-08-24T11:23:16;3.97;;;2.25;;
80322;SDS011;69636;52.372;13.610;2023-08-24T11:25:44;5.45;;;2.67;;
80322;SDS011;69636;52.372;13.610;2023-08-24T11:28:16;3.53;;;1.98;;
80322;SDS011;69636;52.372;13.610;2023-08-24T11:30:44;3.38;;;2.33;;
80322;SDS011;69636;52.372;13.610;2023-08-24T11:33:12;4.72;;;2.60;;
80322;SDS011;69636;52.372;13.610;2023-08-24T11:35:41;4.75;;;2.92;;
80322;SDS011;69636;52.372;13.610;2023-08-24T11:38:09;4.53;;;2.30;;
80322;SDS011;69636;52.372;13.610;2023-08-24T11:40:38;4.88;;;2.78;;
80322;SDS011;69636;52.372;13.610;2023-08-24T11:43:06;3.08;;;2.40;;
80322;SDS011;69636;52.372;13.610;2023-08-24T11:45:34;3.85;;;2.20;;
80322;SDS011;69636;52.372;13.610;2023-08-24T11:48:04;3.80;;;2.22;;
80322;SDS011;69636;52.372;13.610;2023-08-24T11:50:32;3.80;;;2.33;;
80322;SDS011;69636;52.372;13.610;2023-08-24T11:53:00;4.35;;;2.60;;
80322;SDS011;69636;52.372;13.610;2023-08-24T11:55:27;5.00;;;2.53;;
80322;SDS011;69636;52.372;13.610;2023-08-24T11:57:59;5.50;;;2.33;;
80322;SDS011;69636;52.372;13.610;2023-08-24T12:00:27;4.10;;;2.30;;
80322;SDS011;69636;52.372;13.610;2023-08-24T12:02:55;3.50;;;2.17;;
80322;SDS011;69636;52.372;13.610;2023-08-24T12:05:24;3.80;;;2.50;;
80322;SDS011;69636;52.372;13.610;2023-08-24T12:07:52;4.28;;;2.30;;
80322;SDS011;69636;52.372;13.610;2023-08-24T12:10:20;3.65;;;2.50;;
80322;SDS011;69636;52.372;13.610;2023-08-24T12:12:48;3.65;;;2.03;;
80322;SDS011;69636;52.372;13.610;2023-08-24T12:15:18;3.13;;;2.53;;
80322;SDS011;69636;52.372;13.610;2023-08-24T12:17:46;3.20;;;2.42;;
80322;SDS011;69636;52.372;13.610;2023-08-24T12:20:18;4.72;;;2.50;;
80322;SDS011;69636;52.372;13.610;2023-08-24T12:22:49;4.25;;;2.45;;
80322;SDS011;69636;52.372;13.610;2023-08-24T12:25:18;3.72;;;2.50;;
80322;SDS011;69636;52.372;13.610;2023-08-24T12:27:49;3.42;;;2.50;;
80322;SDS011;69636;52.372;13.610;2023-08-24T12:30:19;3.80;;;2.33;;
80322;SDS011;69636;52.372;13.610;2023-08-24T12:32:47;3.92;;;2.30;;
80322;SDS011;69636;52.372;13.610;2023-08-24T12:35:16;3.63;;;2.53;;
80322;SDS011;69636;52.372;13.610;2023-08-24T12:37:43;4.53;;;2.78;;
80322;SDS011;69636;52.372;13.610;2023-08-24T12:40:10;6.88;;;2.67;;
80322;SDS011;69636;52.372;13.610;2023-08-24T12:42:39;3.45;;;2.00;;
80322;SDS011;69636;52.372;13.610;2023-08-24T12:45:07;3.38;;;2.20;;
80322;SDS011;69636;52.372;13.610;2023-08-24T12:47:36;3.55;;;2.75;;
80322;SDS011;69636;52.372;13.610;2023-08-24T12:50:05;3.65;;;2.15;;
80322;SDS011;69636;52.372;13.610;2023-08-24T12:52:33;4.00;;;2.63;;
80322;SDS011;69636;52.372;13.610;2023-08-24T12:55:00;4.18;;;3.05;;
80322;SDS011;69636;52.372;13.610;2023-08-24T12:57:28;4.35;;;2.90;;
80322;SDS011;69636;52.372;13.610;2023-08-24T12:59:55;3.75;;;2.60;;
80322;SDS011;69636;52.372;13.610;2023-08-24T13:02:22;4.88;;;2.92;;
80322;SDS011;69636;52.372;13.610;2023-08-24T13:05:06;4.63;;;2.30;;
80322;SDS011;69636;52.372;13.610;2023-08-24T13:07:33;3.33;;;2.42;;
80322;SDS011;69636;52.372;13.610;2023-08-24T13:10:02;4.70;;;2.72;;
80322;SDS011;69636;52.372;13.610;2023-08-24T13:12:30;4.85;;;2.78;;
80322;SDS011;69636;52.372;13.610;2023-08-24T13:14:58;3.15;;;2.00;;
80322;SDS011;69636;52.372;13.610;2023-08-24T13:17:25;3.40;;;2.38;;
80322;SDS011;69636;52.372;13.610;2023-08-24T13:19:52;3.97;;;2.40;;
80322;SDS011;69636;52.372;13.610;2023-08-24T13:22:21;3.78;;;2.65;;
80322;SDS011;69636;52.372;13.610;2023-08-24T13:24:48;4.95;;;2.20;;
80322;SDS011;69636;52.372;13.610;2023-08-24T13:27:16;4.78;;;2.47;;
80322;SDS011;69636;52.372;13.610;2023-08-24T13:29:43;4.05;;;2.30;;
80322;SDS011;69636;52.372;13.610;2023-08-24T13:32:10;4.18;;;2.35;;
80322;SDS011;69636;52.372;13.610;2023-08-24T13:34:38;4.20;;;2.45;;
80322;SDS011;69636;52.372;13.610;2023-08-24T13:37:05;4.90;;;2.80;;
80322;SDS011;69636;52.372;13.610;2023-08-24T13:39:34;4.72;;;2.40;;
80322;SDS011;69636;52.372;13.610;2023-08-24T13:42:01;4.63;;;2.75;;
80322;SDS011;69636;52.372;13.610;2023-08-24T13:44:29;3.65;;;2.58;;
80322;SDS011;69636;52.372;13.610;2023-08-24T13:46:56;5.07;;;2.20;;
80322;SDS011;69636;52.372;13.610;2023-08-24T13:49:23;3.35;;;2.20;;
80322;SDS011;69636;52.372;13.610;2023-08-24T13:52:06;4.32;;;2.35;;
80322;SDS011;69636;52.372;13.610;2023-08-24T13:54:36;3.55;;;2.30;;
80322;SDS011;69636;52.372;13.610;2023-08-24T13:57:03;4.05;;;2.00;;
80322;SDS011;69636;52.372;13.610;2023-08-24T13:59:31;6.13;;;2.40;;
80322;SDS011;69636;52.372;13.610;2023-08-24T14:01:59;3.53;;;2.30;;
80322;SDS011;69636;52.372;13.610;2023-08-24T14:04:26;4.13;;;2.53;;
80322;SDS011;69636;52.372;13.610;2023-08-24T14:06:54;3.40;;;2.30;;
80322;SDS011;69636;52.372;13.610;2023-08-24T14:09:21;3.67;;;2.00;;
80322;SDS011;69636;52.372;13.610;2023-08-24T14:11:50;4.47;;;2.75;;
80322;SDS011;69636;52.372;13.610;2023-08-24T14:14:17;3.45;;;2.33;;
80322;SDS011;69636;52.372;13.610;2023-08-24T14:16:45;6.38;;;2.40;;
80322;SDS011;69636;52.372;13.610;2023-08-24T14:19:14;3.15;;;1.90;;
80322;SDS011;69636;52.372;13.610;2023-08-24T14:21:42;3.28;;;2.30;;
80322;SDS011;69636;52.372;13.610;2023-08-24T14:24:11;4.32;;;2.42;;
80322;SDS011;69636;52.372;13.610;2023-08-24T14:26:38;6.68;;;2.92;;
80322;SDS011;69636;52.372;13.610;2023-08-24T14:29:08;3.50;;;2.28;;
80322;SDS011;69636;52.372;13.610;2023-08-24T14:31:35;2.97;;;1.88;;
80322;SDS011;69636;52.372;13.610;2023-08-24T14:34:02;3.95;;;2.78;;
80322;SDS011;69636;52.372;13.610;2023-08-24T14:36:30;3.78;;;2.30;;
80322;SDS011;69636;52.372;13.610;2023-08-24T14:38:57;4.50;;;2.47;;
80322;SDS011;69636;52.372;13.610;2023-08-24T14:41:25;4.05;;;2.20;;
80322;SDS011;69636;52.372;13.610;2023-08-24T14:43:52;4.15;;;2.45;;
80322;SDS011;69636;52.372;13.610;2023-08-24T14:46:21;4.25;;;3.05;;
80322;SDS011;69636;52.372;13.610;2023-08-24T14:48:48;3.80;;;2.88;;
80322;SDS011;69636;52.372;13.610;2023-08-24T14:51:16;4.43;;;2.58;;
80322;SDS011;69636;52.372;13.610;2023-08-24T14:56:10;4.32;;;3.03;;
80322;SDS011;69636;52.372;13.610;2023-08-24T14:58:37;3.38;;;2.03;;
80322;SDS011;69636;52.372;13.610;2023-08-24T15:01:04;3.22;;;2.22;;
80322;SDS011;69636;52.372;13.610;2023-08-24T15:03:33;4.05;;;3.00;;
80322;SDS011;69636;52.372;13.610;2023-08-24T15:06:03;4.05;;;2.50;;
80322;SDS011;69636;52.372;13.610;2023-08-24T15:08:32;3.88;;;2.45;;
80322;SDS011;69636;52.372;13.610;2023-08-24T15:11:00;3.90;;;3.00;;
80322;SDS011;69636;52.372;13.610;2023-08-24T15:13:29;3.53;;;2.20;;
80322;SDS011;69636;52.372;13.610;2023-08-24T15:15:57;3.28;;;2.45;;
80322;SDS011;69636;52.372;13.610;2023-08-24T15:18:25;4.05;;;2.85;;
80322;SDS011;69636;52.372;13.610;2023-08-24T15:20:55;4.45;;;3.30;;